sensor_id;sensor_type;location;lat;lon;timestamp;P1;durP1;ratioP1;P2;durP2;ratioP2
5379;SDS011;2713;42.680;23.310;2022-09-23T00:00:14;6.93;;;6.33;;
5379;SDS011;2713;42.680;23.310;2022-09-23T00:02:41;8.03;;;7.20;;
5379;SDS011;2713;42.680;23.310;2022-09-23T00:05:13;7.20;;;6.60;;
5379;SDS011;2713;42.680;23.310;2022-09-23T00:07:40;6.97;;;6.37;;
5379;SDS011;2713;42.680;23.310;2022-09-23T00:10:09;7.50;;;6.43;;
5379;SDS011;2713;42.680;23.310;2022-09-23T00:12:36;7.67;;;6.90;;
5379;SDS011;2713;42.680;23.310;2022-09-23T00:15:03;6.80;;;6.30;;
5379;SDS011;2713;42.680;23.310;2022-09-23T00:17:31;7.50;;;6.80;;
5379;SDS011;2713;42.680;23.310;2022-09-23T00:19:58;7.57;;;6.83;;
5379;SDS011;2713;42.680;23.310;2022-09-23T00:22:25;6.77;;;6.27;;
5379;SDS011;2713;42.680;23.310;2022-09-23T00:24:52;6.70;;;6.10;;
5379;SDS011;2713;42.680;23.310;2022-09-23T00:27:20;6.97;;;6.37;;
5379;SDS011;2713;42.680;23.310;2022-09-23T00:29:47;7.20;;;6.60;;
5379;SDS011;2713;42.680;23.310;2022-09-23T00:32:14;6.23;;;5.73;;
5379;SDS011;2713;42.680;23.310;2022-09-23T00:34:42;7.10;;;6.50;;
5379;SDS011;2713;42.680;23.310;2022-09-23T00:37:09;6.80;;;6.20;;
5379;SDS011;2713;42.680;23.310;2022-09-23T00:39:36;6.80;;;6.30;;
5379;SDS011;2713;42.680;23.310;2022-09-23T00:42:04;6.63;;;6.13;;
5379;SDS011;2713;42.680;23.310;2022-09-23T00:44:44;7.97;;;6.47;;
5379;SDS011;2713;42.680;23.310;2022-09-23T00:47:15;8.03;;;7.33;;
5379;SDS011;2713;42.680;23.310;2022-09-23T00:49:45;8.07;;;7.37;;
5379;SDS011;2713;42.680;23.310;2022-09-23T00:52:16;7.60;;;6.83;;
5379;SDS011;2713;42.680;23.310;2022-09-23T00:54:45;8.50;;;7.30;;
5379;SDS011;2713;42.680;23.310;2022-09-23T00:57:13;7.93;;;7.23;;
5379;SDS011;2713;42.680;23.310;2022-09-23T00:59:45;7.53;;;6.70;;
5379;SDS011;2713;42.680;23.310;2022-09-23T01:02:14;7.17;;;6.50;;
5379;SDS011;2713;42.680;23.310;2022-09-23T01:04:42;7.60;;;6.93;;
5379;SDS011;2713;42.680;23.310;2022-09-23T01:07:09;7.10;;;6.40;;
5379;SDS011;2713;42.680;23.310;2022-09-23T01:09:37;6.93;;;6.33;;
5379;SDS011;2713;42.680;23.310;2022-09-23T01:12:07;6.97;;;6.37;;
5379;SDS011;2713;42.680;23.310;2022-09-23T01:14:47;7.10;;;6.50;;
5379;SDS011;2713;42.680;23.310;2022-09-23T01:17:23;6.50;;;6.00;;
5379;SDS011;2713;42.680;23.310;2022-09-23T01:23:07;7.13;;;6.53;;
5379;SDS011;2713;42.680;23.310;2022-09-23T01:25:50;7.10;;;6.50;;
5379;SDS011;2713;42.680;23.310;2022-09-23T01:28:36;7.00;;;6.40;;
5379;SDS011;2713;42.680;23.310;2022-09-23T01:34:06;7.17;;;6.57;;
5379;SDS011;2713;42.680;23.310;2022-09-23T01:36:38;7.60;;;6.90;;
5379;SDS011;2713;42.680;23.310;2022-09-23T01:39:09;7.17;;;6.47;;
5379;SDS011;2713;42.680;23.310;2022-09-23T01:41:45;7.17;;;6.50;;
5379;SDS011;2713;42.680;23.310;2022-09-23T01:44:23;6.97;;;6.47;;
5379;SDS011;2713;42.680;23.310;2022-09-23T01:46:57;7.47;;;6.77;;
5379;SDS011;2713;42.680;23.310;2022-09-23T01:49:30;7.67;;;6.97;;
5379;SDS011;2713;42.680;23.310;2022-09-23T01:52:03;9.67;;;7.53;;
5379;SDS011;2713;42.680;23.310;2022-09-23T01:54:36;7.83;;;7.13;;
5379;SDS011;2713;42.680;23.310;2022-09-23T01:57:06;9.67;;;8.60;;
5379;SDS011;2713;42.680;23.310;2022-09-23T01:59:39;8.27;;;7.40;;
5379;SDS011;2713;42.680;23.310;2022-09-23T02:02:16;8.50;;;7.60;;
5379;SDS011;2713;42.680;23.310;2022-09-23T02:04:51;8.10;;;7.37;;
5379;SDS011;2713;42.680;23.310;2022-09-23T02:07:26;8.00;;;7.20;;
5379;SDS011;2713;42.680;23.310;2022-09-23T02:10:01;8.90;;;7.60;;
5379;SDS011;2713;42.680;23.310;2022-09-23T02:12:31;8.20;;;7.40;;
5379;SDS011;2713;42.680;23.310;2022-09-23T02:15:03;7.60;;;6.80;;
5379;SDS011;2713;42.680;23.310;2022-09-23T02:17:36;8.33;;;7.53;;
5379;SDS011;2713;42.680;23.310;2022-09-23T02:20:09;9.17;;;7.57;;
5379;SDS011;2713;42.680;23.310;2022-09-23T02:22:41;7.90;;;7.20;;
5379;SDS011;2713;42.680;23.310;2022-09-23T02:25:18;8.70;;;7.90;;
5379;SDS011;2713;42.680;23.310;2022-09-23T02:27:53;7.47;;;6.87;;
5379;SDS011;2713;42.680;23.310;2022-09-23T02:30:26;7.00;;;6.37;;
5379;SDS011;2713;42.680;23.310;2022-09-23T02:32:58;7.27;;;6.57;;
5379;SDS011;2713;42.680;23.310;2022-09-23T02:35:31;6.90;;;6.30;;
5379;SDS011;2713;42.680;23.310;2022-09-23T02:38:05;7.63;;;6.43;;
5379;SDS011;2713;42.680;23.310;2022-09-23T02:40:45;7.27;;;6.67;;
5379;SDS011;2713;42.680;23.310;2022-09-23T02:43:20;7.63;;;6.73;;
5379;SDS011;2713;42.680;23.310;2022-09-23T02:45:56;7.77;;;6.90;;
5379;SDS011;2713;42.680;23.310;2022-09-23T02:48:25;7.97;;;6.50;;
5379;SDS011;2713;42.680;23.310;2022-09-23T02:50:56;6.70;;;6.20;;
5379;SDS011;2713;42.680;23.310;2022-09-23T02:53:26;7.20;;;6.50;;
5379;SDS011;2713;42.680;23.310;2022-09-23T02:55:54;7.37;;;6.60;;
5379;SDS011;2713;42.680;23.310;2022-09-23T02:58:21;8.17;;;7.37;;
5379;SDS011;2713;42.680;23.310;2022-09-23T03:00:51;7.77;;;6.97;;
5379;SDS011;2713;42.680;23.310;2022-09-23T03:03:37;7.93;;;7.13;;
5379;SDS011;2713;42.680;23.310;2022-09-23T03:06:13;7.77;;;7.03;;
5379;SDS011;2713;42.680;23.310;2022-09-23T03:08:48;7.33;;;6.63;;
5379;SDS011;2713;42.680;23.310;2022-09-23T03:11:20;8.90;;;6.73;;
5379;SDS011;2713;42.680;23.310;2022-09-23T03:13:51;7.67;;;6.97;;
5379;SDS011;2713;42.680;23.310;2022-09-23T03:16:30;7.90;;;7.17;;
5379;SDS011;2713;42.680;23.310;2022-09-23T03:19:11;7.37;;;6.67;;
5379;SDS011;2713;42.680;23.310;2022-09-23T03:21:48;7.00;;;6.30;;
5379;SDS011;2713;42.680;23.310;2022-09-23T03:24:24;7.03;;;6.43;;
5379;SDS011;2713;42.680;23.310;2022-09-23T03:26:55;7.63;;;6.93;;
5379;SDS011;2713;42.680;23.310;2022-09-23T03:29:26;6.80;;;6.20;;
5379;SDS011;2713;42.680;23.310;2022-09-23T03:31:54;6.87;;;6.20;;
5379;SDS011;2713;42.680;23.310;2022-09-23T03:34:23;6.57;;;5.87;;
5379;SDS011;2713;42.680;23.310;2022-09-23T03:36:57;7.80;;;7.00;;
5379;SDS011;2713;42.680;23.310;2022-09-23T03:39:34;7.57;;;6.60;;
5379;SDS011;2713;42.680;23.310;2022-09-23T03:42:06;7.87;;;7.03;;
5379;SDS011;2713;42.680;23.310;2022-09-23T03:44:40;7.20;;;6.50;;
5379;SDS011;2713;42.680;23.310;2022-09-23T03:47:08;7.53;;;6.83;;
5379;SDS011;2713;42.680;23.310;2022-09-23T03:49:36;8.10;;;7.30;;
5379;SDS011;2713;42.680;23.310;2022-09-23T03:52:06;6.97;;;6.37;;
5379;SDS011;2713;42.680;23.310;2022-09-23T03:54:33;8.10;;;7.40;;
5379;SDS011;2713;42.680;23.310;2022-09-23T03:57:00;7.37;;;6.73;;
5379;SDS011;2713;42.680;23.310;2022-09-23T03:59:28;8.13;;;7.33;;
5379;SDS011;2713;42.680;23.310;2022-09-23T04:01:56;10.27;;;7.90;;
5379;SDS011;2713;42.680;23.310;2022-09-23T04:04:24;8.40;;;7.60;;
5379;SDS011;2713;42.680;23.310;2022-09-23T04:06:52;8.70;;;7.33;;
5379;SDS011;2713;42.680;23.310;2022-09-23T04:09:20;8.13;;;7.30;;
5379;SDS011;2713;42.680;23.310;2022-09-23T04:11:47;9.30;;;7.60;;
5379;SDS011;2713;42.680;23.310;2022-09-23T04:14:15;9.70;;;8.80;;
5379;SDS011;2713;42.680;23.310;2022-09-23T04:16:43;10.10;;;7.73;;
5379;SDS011;2713;42.680;23.310;2022-09-23T04:19:10;15.87;;;9.80;;
5379;SDS011;2713;42.680;23.310;2022-09-23T04:21:38;10.47;;;8.23;;
5379;SDS011;2713;42.680;23.310;2022-09-23T04:24:06;11.73;;;9.00;;
5379;SDS011;2713;42.680;23.310;2022-09-23T04:26:35;10.03;;;8.90;;
5379;SDS011;2713;42.680;23.310;2022-09-23T04:29:03;10.70;;;8.30;;
5379;SDS011;2713;42.680;23.310;2022-09-23T04:31:31;10.90;;;9.00;;
5379;SDS011;2713;42.680;23.310;2022-09-23T04:33:58;11.67;;;9.80;;
5379;SDS011;2713;42.680;23.310;2022-09-23T04:36:26;10.43;;;9.13;;
5379;SDS011;2713;42.680;23.310;2022-09-23T04:38:53;10.70;;;8.97;;
5379;SDS011;2713;42.680;23.310;2022-09-23T04:41:20;10.53;;;9.43;;
5379;SDS011;2713;42.680;23.310;2022-09-23T04:43:49;10.57;;;9.37;;
5379;SDS011;2713;42.680;23.310;2022-09-23T04:46:16;11.07;;;9.67;;
5379;SDS011;2713;42.680;23.310;2022-09-23T04:48:43;10.57;;;8.63;;
5379;SDS011;2713;42.680;23.310;2022-09-23T04:51:11;13.10;;;10.40;;
5379;SDS011;2713;42.680;23.310;2022-09-23T04:53:40;11.40;;;9.53;;
5379;SDS011;2713;42.680;23.310;2022-09-23T04:56:09;11.90;;;9.13;;
5379;SDS011;2713;42.680;23.310;2022-09-23T04:58:38;14.37;;;10.10;;
5379;SDS011;2713;42.680;23.310;2022-09-23T05:01:11;11.20;;;9.50;;
5379;SDS011;2713;42.680;23.310;2022-09-23T05:03:40;13.17;;;10.40;;
5379;SDS011;2713;42.680;23.310;2022-09-23T05:06:08;16.00;;;11.00;;
5379;SDS011;2713;42.680;23.310;2022-09-23T05:08:38;15.33;;;13.13;;
5379;SDS011;2713;42.680;23.310;2022-09-23T05:11:05;16.23;;;13.17;;
5379;SDS011;2713;42.680;23.310;2022-09-23T05:13:33;18.90;;;13.70;;
5379;SDS011;2713;42.680;23.310;2022-09-23T05:16:01;17.00;;;12.77;;
5379;SDS011;2713;42.680;23.310;2022-09-23T05:18:31;14.90;;;12.60;;
5379;SDS011;2713;42.680;23.310;2022-09-23T05:20:59;21.50;;;12.70;;
5379;SDS011;2713;42.680;23.310;2022-09-23T05:23:26;14.03;;;10.90;;
5379;SDS011;2713;42.680;23.310;2022-09-23T05:25:57;12.20;;;10.10;;
5379;SDS011;2713;42.680;23.310;2022-09-23T05:28:26;11.70;;;9.27;;
5379;SDS011;2713;42.680;23.310;2022-09-23T05:30:59;10.00;;;8.53;;
5379;SDS011;2713;42.680;23.310;2022-09-23T05:33:28;10.30;;;8.13;;
5379;SDS011;2713;42.680;23.310;2022-09-23T05:35:57;9.20;;;7.83;;
5379;SDS011;2713;42.680;23.310;2022-09-23T05:38:24;9.67;;;8.67;;
5379;SDS011;2713;42.680;23.310;2022-09-23T05:40:54;10.30;;;8.73;;
5379;SDS011;2713;42.680;23.310;2022-09-23T05:43:21;9.97;;;8.90;;
5379;SDS011;2713;42.680;23.310;2022-09-23T05:45:48;9.07;;;8.17;;
5379;SDS011;2713;42.680;23.310;2022-09-23T05:48:16;8.63;;;7.20;;
5379;SDS011;2713;42.680;23.310;2022-09-23T05:50:48;8.40;;;7.60;;
5379;SDS011;2713;42.680;23.310;2022-09-23T05:53:16;8.30;;;7.50;;
5379;SDS011;2713;42.680;23.310;2022-09-23T05:55:44;10.77;;;7.63;;
5379;SDS011;2713;42.680;23.310;2022-09-23T05:58:11;7.53;;;6.83;;
5379;SDS011;2713;42.680;23.310;2022-09-23T06:00:38;8.50;;;7.40;;
5379;SDS011;2713;42.680;23.310;2022-09-23T06:03:06;9.03;;;8.00;;
5379;SDS011;2713;42.680;23.310;2022-09-23T06:05:38;8.23;;;7.00;;
5379;SDS011;2713;42.680;23.310;2022-09-23T06:08:05;7.40;;;6.70;;
5379;SDS011;2713;42.680;23.310;2022-09-23T06:10:36;9.00;;;7.10;;
5379;SDS011;2713;42.680;23.310;2022-09-23T06:13:04;7.90;;;7.10;;
5379;SDS011;2713;42.680;23.310;2022-09-23T06:15:32;7.27;;;6.67;;
5379;SDS011;2713;42.680;23.310;2022-09-23T06:17:59;7.50;;;6.80;;
5379;SDS011;2713;42.680;23.310;2022-09-23T06:20:26;7.47;;;6.70;;
5379;SDS011;2713;42.680;23.310;2022-09-23T06:22:53;6.90;;;6.20;;
5379;SDS011;2713;42.680;23.310;2022-09-23T06:25:22;6.50;;;5.80;;
5379;SDS011;2713;42.680;23.310;2022-09-23T06:27:52;6.33;;;5.83;;
5379;SDS011;2713;42.680;23.310;2022-09-23T06:30:20;7.30;;;6.60;;
5379;SDS011;2713;42.680;23.310;2022-09-23T06:32:47;7.90;;;7.20;;
5379;SDS011;2713;42.680;23.310;2022-09-23T06:35:16;7.13;;;6.50;;
5379;SDS011;2713;42.680;23.310;2022-09-23T06:37:43;7.47;;;6.80;;
5379;SDS011;2713;42.680;23.310;2022-09-23T06:40:10;11.10;;;7.30;;
5379;SDS011;2713;42.680;23.310;2022-09-23T06:42:38;8.40;;;7.40;;
5379;SDS011;2713;42.680;23.310;2022-09-23T06:45:07;6.77;;;6.27;;
5379;SDS011;2713;42.680;23.310;2022-09-23T06:47:39;6.83;;;6.30;;
5379;SDS011;2713;42.680;23.310;2022-09-23T06:50:08;7.40;;;6.70;;
5379;SDS011;2713;42.680;23.310;2022-09-23T06:52:36;7.43;;;6.63;;
5379;SDS011;2713;42.680;23.310;2022-09-23T06:55:04;8.10;;;6.60;;
5379;SDS011;2713;42.680;23.310;2022-09-23T06:57:31;7.77;;;7.07;;
5379;SDS011;2713;42.680;23.310;2022-09-23T06:59:59;7.43;;;6.77;;
5379;SDS011;2713;42.680;23.310;2022-09-23T07:02:28;6.73;;;6.23;;
5379;SDS011;2713;42.680;23.310;2022-09-23T07:04:55;7.20;;;6.50;;
5379;SDS011;2713;42.680;23.310;2022-09-23T07:07:22;7.70;;;7.00;;
5379;SDS011;2713;42.680;23.310;2022-09-23T07:09:50;7.57;;;6.80;;
5379;SDS011;2713;42.680;23.310;2022-09-23T07:12:18;6.17;;;5.63;;
5379;SDS011;2713;42.680;23.310;2022-09-23T07:14:45;6.30;;;5.70;;
5379;SDS011;2713;42.680;23.310;2022-09-23T07:17:12;6.67;;;5.97;;
5379;SDS011;2713;42.680;23.310;2022-09-23T07:19:40;6.23;;;5.63;;
5379;SDS011;2713;42.680;23.310;2022-09-23T07:22:08;5.83;;;5.27;;
5379;SDS011;2713;42.680;23.310;2022-09-23T07:24:36;10.30;;;9.13;;
5379;SDS011;2713;42.680;23.310;2022-09-23T07:27:03;9.07;;;6.23;;
5379;SDS011;2713;42.680;23.310;2022-09-23T07:29:30;6.43;;;5.83;;
5379;SDS011;2713;42.680;23.310;2022-09-23T07:31:57;6.07;;;5.63;;
5379;SDS011;2713;42.680;23.310;2022-09-23T07:34:24;6.27;;;5.67;;
5379;SDS011;2713;42.680;23.310;2022-09-23T07:36:53;6.20;;;5.60;;
5379;SDS011;2713;42.680;23.310;2022-09-23T07:39:20;5.80;;;5.30;;
5379;SDS011;2713;42.680;23.310;2022-09-23T07:41:47;6.10;;;5.60;;
5379;SDS011;2713;42.680;23.310;2022-09-23T07:44:16;5.90;;;5.40;;
5379;SDS011;2713;42.680;23.310;2022-09-23T07:46:43;6.20;;;5.67;;
5379;SDS011;2713;42.680;23.310;2022-09-23T07:49:10;6.30;;;5.70;;
5379;SDS011;2713;42.680;23.310;2022-09-23T07:51:38;6.53;;;5.97;;
5379;SDS011;2713;42.680;23.310;2022-09-23T07:54:09;5.77;;;5.27;;
5379;SDS011;2713;42.680;23.310;2022-09-23T07:56:37;6.20;;;5.70;;
5379;SDS011;2713;42.680;23.310;2022-09-23T07:59:06;6.00;;;5.60;;
5379;SDS011;2713;42.680;23.310;2022-09-23T08:01:35;7.93;;;6.30;;
5379;SDS011;2713;42.680;23.310;2022-09-23T08:04:03;5.70;;;5.30;;
5379;SDS011;2713;42.680;23.310;2022-09-23T08:06:32;5.03;;;4.63;;
5379;SDS011;2713;42.680;23.310;2022-09-23T08:09:01;6.20;;;5.70;;
5379;SDS011;2713;42.680;23.310;2022-09-23T08:11:29;6.20;;;5.70;;
5379;SDS011;2713;42.680;23.310;2022-09-23T08:13:57;5.83;;;5.33;;
5379;SDS011;2713;42.680;23.310;2022-09-23T08:16:24;5.10;;;4.70;;
5379;SDS011;2713;42.680;23.310;2022-09-23T08:18:51;6.03;;;5.43;;
5379;SDS011;2713;42.680;23.310;2022-09-23T08:21:18;6.53;;;5.40;;
5379;SDS011;2713;42.680;23.310;2022-09-23T08:23:46;5.93;;;5.40;;
5379;SDS011;2713;42.680;23.310;2022-09-23T08:26:14;5.63;;;5.10;;
5379;SDS011;2713;42.680;23.310;2022-09-23T08:28:43;5.57;;;5.13;;
5379;SDS011;2713;42.680;23.310;2022-09-23T08:31:11;5.30;;;4.90;;
5379;SDS011;2713;42.680;23.310;2022-09-23T08:33:38;5.43;;;4.90;;
5379;SDS011;2713;42.680;23.310;2022-09-23T08:36:06;5.53;;;5.03;;
5379;SDS011;2713;42.680;23.310;2022-09-23T08:38:33;6.50;;;4.70;;
5379;SDS011;2713;42.680;23.310;2022-09-23T08:41:03;5.37;;;4.87;;
5379;SDS011;2713;42.680;23.310;2022-09-23T08:43:36;5.40;;;5.00;;
5379;SDS011;2713;42.680;23.310;2022-09-23T08:46:07;6.27;;;5.77;;
5379;SDS011;2713;42.680;23.310;2022-09-23T08:48:37;6.00;;;5.27;;
5379;SDS011;2713;42.680;23.310;2022-09-23T08:51:10;5.30;;;4.90;;
5379;SDS011;2713;42.680;23.310;2022-09-23T08:53:39;6.10;;;5.37;;
5379;SDS011;2713;42.680;23.310;2022-09-23T08:56:09;7.20;;;5.67;;
5379;SDS011;2713;42.680;23.310;2022-09-23T08:58:45;5.23;;;4.83;;
5379;SDS011;2713;42.680;23.310;2022-09-23T09:01:23;5.10;;;4.80;;
5379;SDS011;2713;42.680;23.310;2022-09-23T09:03:55;6.70;;;5.07;;
5379;SDS011;2713;42.680;23.310;2022-09-23T09:06:25;5.10;;;4.70;;
5379;SDS011;2713;42.680;23.310;2022-09-23T09:08:58;4.77;;;4.37;;
5379;SDS011;2713;42.680;23.310;2022-09-23T09:11:30;4.40;;;4.00;;
5379;SDS011;2713;42.680;23.310;2022-09-23T09:14:09;4.60;;;4.30;;
5379;SDS011;2713;42.680;23.310;2022-09-23T09:16:46;4.43;;;4.10;;
5379;SDS011;2713;42.680;23.310;2022-09-23T09:19:28;3.50;;;3.30;;
5379;SDS011;2713;42.680;23.310;2022-09-23T09:22:11;4.20;;;3.90;;
5379;SDS011;2713;42.680;23.310;2022-09-23T09:24:45;8.70;;;7.80;;
5379;SDS011;2713;42.680;23.310;2022-09-23T09:27:14;5.13;;;4.73;;
5379;SDS011;2713;42.680;23.310;2022-09-23T09:29:42;4.60;;;4.20;;
5379;SDS011;2713;42.680;23.310;2022-09-23T09:32:15;4.67;;;4.37;;
5379;SDS011;2713;42.680;23.310;2022-09-23T09:34:50;5.13;;;4.30;;
5379;SDS011;2713;42.680;23.310;2022-09-23T09:37:24;4.43;;;4.03;;
5379;SDS011;2713;42.680;23.310;2022-09-23T09:39:57;4.27;;;3.97;;
5379;SDS011;2713;42.680;23.310;2022-09-23T09:42:25;4.10;;;3.80;;
5379;SDS011;2713;42.680;23.310;2022-09-23T09:45:03;3.50;;;3.30;;
5379;SDS011;2713;42.680;23.310;2022-09-23T09:47:41;3.97;;;3.67;;
5379;SDS011;2713;42.680;23.310;2022-09-23T09:50:16;5.57;;;4.00;;
5379;SDS011;2713;42.680;23.310;2022-09-23T09:53:13;3.83;;;3.63;;
5379;SDS011;2713;42.680;23.310;2022-09-23T09:55:41;4.13;;;3.83;;
5379;SDS011;2713;42.680;23.310;2022-09-23T09:58:09;4.40;;;4.10;;
5379;SDS011;2713;42.680;23.310;2022-09-23T10:00:41;3.87;;;3.57;;
5379;SDS011;2713;42.680;23.310;2022-09-23T10:03:31;3.50;;;3.30;;
5379;SDS011;2713;42.680;23.310;2022-09-23T10:06:11;3.27;;;3.07;;
5379;SDS011;2713;42.680;23.310;2022-09-23T10:08:41;3.50;;;3.20;;
5379;SDS011;2713;42.680;23.310;2022-09-23T10:11:15;3.60;;;3.30;;
5379;SDS011;2713;42.680;23.310;2022-09-23T10:13:59;3.80;;;3.50;;
5379;SDS011;2713;42.680;23.310;2022-09-23T10:16:30;3.90;;;3.60;;
5379;SDS011;2713;42.680;23.310;2022-09-23T10:19:00;4.73;;;3.70;;
5379;SDS011;2713;42.680;23.310;2022-09-23T10:21:31;5.50;;;4.20;;
5379;SDS011;2713;42.680;23.310;2022-09-23T10:24:02;3.97;;;3.67;;
5379;SDS011;2713;42.680;23.310;2022-09-23T10:26:31;3.87;;;3.57;;
5379;SDS011;2713;42.680;23.310;2022-09-23T10:29:00;7.53;;;3.97;;
5379;SDS011;2713;42.680;23.310;2022-09-23T10:31:29;4.60;;;4.20;;
5379;SDS011;2713;42.680;23.310;2022-09-23T10:34:00;3.90;;;3.60;;
5379;SDS011;2713;42.680;23.310;2022-09-23T10:36:29;3.40;;;3.10;;
5379;SDS011;2713;42.680;23.310;2022-09-23T10:38:57;3.70;;;3.40;;
5379;SDS011;2713;42.680;23.310;2022-09-23T10:41:41;3.80;;;3.50;;
5379;SDS011;2713;42.680;23.310;2022-09-23T10:44:33;4.00;;;3.70;;
5379;SDS011;2713;42.680;23.310;2022-09-23T10:47:28;4.30;;;4.00;;
5379;SDS011;2713;42.680;23.310;2022-09-23T10:50:08;3.50;;;3.30;;
5379;SDS011;2713;42.680;23.310;2022-09-23T10:52:44;3.80;;;3.50;;
5379;SDS011;2713;42.680;23.310;2022-09-23T10:55:23;3.90;;;3.60;;
5379;SDS011;2713;42.680;23.310;2022-09-23T10:58:13;3.57;;;3.33;;
5379;SDS011;2713;42.680;23.310;2022-09-23T11:01:15;3.80;;;3.50;;
5379;SDS011;2713;42.680;23.310;2022-09-23T11:03:54;3.80;;;3.50;;
5379;SDS011;2713;42.680;23.310;2022-09-23T11:06:49;8.53;;;5.23;;
5379;SDS011;2713;42.680;23.310;2022-09-23T11:09:32;5.30;;;4.80;;
5379;SDS011;2713;42.680;23.310;2022-09-23T11:12:12;4.47;;;3.37;;
5379;SDS011;2713;42.680;23.310;2022-09-23T11:14:50;3.57;;;3.37;;
5379;SDS011;2713;42.680;23.310;2022-09-23T11:17:49;2.80;;;2.60;;
5379;SDS011;2713;42.680;23.310;2022-09-23T11:20:40;2.57;;;2.40;;
5379;SDS011;2713;42.680;23.310;2022-09-23T11:23:23;3.10;;;2.90;;
5379;SDS011;2713;42.680;23.310;2022-09-23T11:26:11;2.27;;;2.07;;
5379;SDS011;2713;42.680;23.310;2022-09-23T11:31:44;1.87;;;1.67;;
5379;SDS011;2713;42.680;23.310;2022-09-23T11:34:23;2.57;;;2.47;;
5379;SDS011;2713;42.680;23.310;2022-09-23T11:37:05;2.10;;;1.90;;
5379;SDS011;2713;42.680;23.310;2022-09-23T11:39:41;2.57;;;2.47;;
5379;SDS011;2713;42.680;23.310;2022-09-23T11:42:12;3.03;;;2.83;;
5379;SDS011;2713;42.680;23.310;2022-09-23T11:44:45;5.40;;;2.57;;
5379;SDS011;2713;42.680;23.310;2022-09-23T11:47:20;2.23;;;1.87;;
5379;SDS011;2713;42.680;23.310;2022-09-23T11:49:51;2.40;;;2.20;;
5379;SDS011;2713;42.680;23.310;2022-09-23T11:52:24;3.00;;;2.70;;
5379;SDS011;2713;42.680;23.310;2022-09-23T11:54:58;2.77;;;2.57;;
5379;SDS011;2713;42.680;23.310;2022-09-23T11:57:30;2.03;;;1.93;;
5379;SDS011;2713;42.680;23.310;2022-09-23T12:00:02;2.00;;;1.90;;
5379;SDS011;2713;42.680;23.310;2022-09-23T12:02:32;3.57;;;2.40;;
5379;SDS011;2713;42.680;23.310;2022-09-23T12:05:15;4.50;;;4.10;;
5379;SDS011;2713;42.680;23.310;2022-09-23T12:07:47;3.60;;;3.33;;
5379;SDS011;2713;42.680;23.310;2022-09-23T12:10:22;2.40;;;2.30;;
5379;SDS011;2713;42.680;23.310;2022-09-23T12:13:02;2.73;;;2.47;;
5379;SDS011;2713;42.680;23.310;2022-09-23T12:15:39;4.90;;;2.63;;
5379;SDS011;2713;42.680;23.310;2022-09-23T12:18:27;3.13;;;2.80;;
5379;SDS011;2713;42.680;23.310;2022-09-23T12:21:18;3.40;;;3.20;;
5379;SDS011;2713;42.680;23.310;2022-09-23T12:24:16;5.93;;;3.23;;
5379;SDS011;2713;42.680;23.310;2022-09-23T12:27:07;4.97;;;3.13;;
5379;SDS011;2713;42.680;23.310;2022-09-23T12:29:48;3.90;;;3.50;;
5379;SDS011;2713;42.680;23.310;2022-09-23T12:32:21;3.27;;;3.07;;
5379;SDS011;2713;42.680;23.310;2022-09-23T12:34:49;5.20;;;3.20;;
5379;SDS011;2713;42.680;23.310;2022-09-23T12:37:26;6.63;;;3.60;;
5379;SDS011;2713;42.680;23.310;2022-09-23T12:39:58;2.90;;;2.70;;
5379;SDS011;2713;42.680;23.310;2022-09-23T12:42:28;3.20;;;3.00;;
5379;SDS011;2713;42.680;23.310;2022-09-23T12:47:52;3.20;;;2.90;;
5379;SDS011;2713;42.680;23.310;2022-09-23T12:56:58;3.33;;;2.70;;
5379;SDS011;2713;42.680;23.310;2022-09-23T13:02:51;4.63;;;3.40;;
5379;SDS011;2713;42.680;23.310;2022-09-23T13:05:41;3.90;;;3.50;;
5379;SDS011;2713;42.680;23.310;2022-09-23T13:08:29;4.60;;;3.80;;
5379;SDS011;2713;42.680;23.310;2022-09-23T13:10:58;3.50;;;3.30;;
5379;SDS011;2713;42.680;23.310;2022-09-23T13:13:28;2.90;;;2.70;;
5379;SDS011;2713;42.680;23.310;2022-09-23T13:16:12;3.10;;;2.90;;
5379;SDS011;2713;42.680;23.310;2022-09-23T13:18:49;4.50;;;2.93;;
5379;SDS011;2713;42.680;23.310;2022-09-23T13:21:57;3.00;;;2.80;;
5379;SDS011;2713;42.680;23.310;2022-09-23T13:24:36;3.20;;;2.90;;
5379;SDS011;2713;42.680;23.310;2022-09-23T13:27:10;2.90;;;2.70;;
5379;SDS011;2713;42.680;23.310;2022-09-23T13:29:46;3.10;;;2.90;;
5379;SDS011;2713;42.680;23.310;2022-09-23T13:32:19;3.00;;;2.80;;
5379;SDS011;2713;42.680;23.310;2022-09-23T13:34:53;4.97;;;3.50;;
5379;SDS011;2713;42.680;23.310;2022-09-23T13:37:24;3.07;;;2.87;;
5379;SDS011;2713;42.680;23.310;2022-09-23T13:40:07;3.20;;;2.90;;
5379;SDS011;2713;42.680;23.310;2022-09-23T13:42:37;3.00;;;2.80;;
5379;SDS011;2713;42.680;23.310;2022-09-23T13:45:11;3.10;;;2.90;;
5379;SDS011;2713;42.680;23.310;2022-09-23T13:47:41;3.20;;;3.00;;
5379;SDS011;2713;42.680;23.310;2022-09-23T13:50:13;3.97;;;3.67;;
5379;SDS011;2713;42.680;23.310;2022-09-23T13:52:44;3.20;;;3.00;;
5379;SDS011;2713;42.680;23.310;2022-09-23T13:55:24;3.43;;;3.23;;
5379;SDS011;2713;42.680;23.310;2022-09-23T13:57:56;3.10;;;2.90;;
5379;SDS011;2713;42.680;23.310;2022-09-23T14:00:31;3.50;;;3.30;;
5379;SDS011;2713;42.680;23.310;2022-09-23T14:03:01;3.30;;;3.00;;
5379;SDS011;2713;42.680;23.310;2022-09-23T14:05:32;3.40;;;3.20;;
5379;SDS011;2713;42.680;23.310;2022-09-23T14:08:00;3.60;;;3.30;;
5379;SDS011;2713;42.680;23.310;2022-09-23T14:10:29;3.73;;;3.53;;
5379;SDS011;2713;42.680;23.310;2022-09-23T14:12:57;3.73;;;3.43;;
5379;SDS011;2713;42.680;23.310;2022-09-23T14:15:24;4.40;;;4.10;;
5379;SDS011;2713;42.680;23.310;2022-09-23T14:17:52;3.70;;;3.43;;
5379;SDS011;2713;42.680;23.310;2022-09-23T14:20:26;3.43;;;3.13;;
5379;SDS011;2713;42.680;23.310;2022-09-23T14:23:06;3.20;;;3.00;;
5379;SDS011;2713;42.680;23.310;2022-09-23T14:25:38;3.60;;;3.40;;
5379;SDS011;2713;42.680;23.310;2022-09-23T14:28:07;2.93;;;2.73;;
5379;SDS011;2713;42.680;23.310;2022-09-23T14:30:37;3.20;;;3.00;;
5379;SDS011;2713;42.680;23.310;2022-09-23T14:33:07;3.10;;;2.70;;
5379;SDS011;2713;42.680;23.310;2022-09-23T14:35:38;2.90;;;2.67;;
5379;SDS011;2713;42.680;23.310;2022-09-23T14:38:07;3.83;;;3.53;;
5379;SDS011;2713;42.680;23.310;2022-09-23T14:40:54;4.80;;;4.40;;
5379;SDS011;2713;42.680;23.310;2022-09-23T14:43:36;3.60;;;3.30;;
5379;SDS011;2713;42.680;23.310;2022-09-23T14:46:04;3.40;;;3.10;;
5379;SDS011;2713;42.680;23.310;2022-09-23T14:48:31;3.67;;;3.37;;
5379;SDS011;2713;42.680;23.310;2022-09-23T14:51:00;3.13;;;2.93;;
5379;SDS011;2713;42.680;23.310;2022-09-23T14:53:34;3.40;;;3.10;;
5379;SDS011;2713;42.680;23.310;2022-09-23T14:56:19;3.50;;;3.07;;
5379;SDS011;2713;42.680;23.310;2022-09-23T14:58:51;3.10;;;2.90;;
5379;SDS011;2713;42.680;23.310;2022-09-23T15:01:23;3.80;;;3.40;;
5379;SDS011;2713;42.680;23.310;2022-09-23T15:03:53;3.50;;;3.10;;
5379;SDS011;2713;42.680;23.310;2022-09-23T15:06:21;4.57;;;2.90;;
5379;SDS011;2713;42.680;23.310;2022-09-23T15:08:49;4.97;;;3.20;;
5379;SDS011;2713;42.680;23.310;2022-09-23T15:11:17;3.03;;;2.83;;
5379;SDS011;2713;42.680;23.310;2022-09-23T15:13:54;3.90;;;3.60;;
5379;SDS011;2713;42.680;23.310;2022-09-23T15:16:23;4.47;;;3.43;;
5379;SDS011;2713;42.680;23.310;2022-09-23T15:18:52;3.53;;;3.30;;
5379;SDS011;2713;42.680;23.310;2022-09-23T15:21:20;3.90;;;3.60;;
5379;SDS011;2713;42.680;23.310;2022-09-23T15:23:50;6.40;;;3.87;;
5379;SDS011;2713;42.680;23.310;2022-09-23T15:26:19;4.03;;;3.63;;
5379;SDS011;2713;42.680;23.310;2022-09-23T15:28:49;4.17;;;3.87;;
5379;SDS011;2713;42.680;23.310;2022-09-23T15:31:20;4.00;;;3.73;;
5379;SDS011;2713;42.680;23.310;2022-09-23T15:33:50;4.80;;;4.40;;
5379;SDS011;2713;42.680;23.310;2022-09-23T15:36:18;5.80;;;5.27;;
5379;SDS011;2713;42.680;23.310;2022-09-23T15:38:49;4.83;;;3.70;;
5379;SDS011;2713;42.680;23.310;2022-09-23T15:41:16;3.87;;;3.57;;
5379;SDS011;2713;42.680;23.310;2022-09-23T15:43:49;4.40;;;4.10;;
5379;SDS011;2713;42.680;23.310;2022-09-23T15:46:17;3.97;;;3.67;;
5379;SDS011;2713;42.680;23.310;2022-09-23T15:48:48;3.93;;;3.70;;
5379;SDS011;2713;42.680;23.310;2022-09-23T15:51:21;4.23;;;3.80;;